sensor_id;sensor_type;location;lat;lon;timestamp;P1;durP1;ratioP1;P2;durP2;ratioP2
77174;SDS011;66153;53.488;10.244;2023-03-01T00:00:08;12.75;;;7.15;;
77174;SDS011;66153;53.488;10.244;2023-03-01T00:02:34;12.30;;;8.15;;
77174;SDS011;66153;53.488;10.244;2023-03-01T00:05:00;11.57;;;7.10;;
77174;SDS011;66153;53.488;10.244;2023-03-01T00:07:26;11.68;;;6.28;;
77174;SDS011;66153;53.488;10.244;2023-03-01T00:09:52;10.10;;;6.72;;
77174;SDS011;66153;53.488;10.244;2023-03-01T00:12:19;11.80;;;6.93;;
77174;SDS011;66153;53.488;10.244;2023-03-01T00:14:45;11.52;;;6.95;;
77174;SDS011;66153;53.488;10.244;2023-03-01T00:17:11;14.00;;;7.47;;
77174;SDS011;66153;53.488;10.244;2023-03-01T00:19:40;10.93;;;6.07;;
77174;SDS011;66153;53.488;10.244;2023-03-01T00:22:06;13.75;;;7.60;;
77174;SDS011;66153;53.488;10.244;2023-03-01T00:24:32;11.90;;;6.80;;
77174;SDS011;66153;53.488;10.244;2023-03-01T00:27:01;11.80;;;6.38;;
77174;SDS011;66153;53.488;10.244;2023-03-01T00:29:27;10.77;;;6.85;;
77174;SDS011;66153;53.488;10.244;2023-03-01T00:31:54;13.50;;;6.85;;
77174;SDS011;66153;53.488;10.244;2023-03-01T00:34:20;11.32;;;6.85;;
77174;SDS011;66153;53.488;10.244;2023-03-01T00:36:46;10.48;;;6.90;;
77174;SDS011;66153;53.488;10.244;2023-03-01T00:39:13;13.27;;;7.07;;
77174;SDS011;66153;53.488;10.244;2023-03-01T00:41:39;12.60;;;6.60;;
77174;SDS011;66153;53.488;10.244;2023-03-01T00:44:05;11.48;;;6.75;;
77174;SDS011;66153;53.488;10.244;2023-03-01T00:46:31;10.65;;;6.28;;
77174;SDS011;66153;53.488;10.244;2023-03-01T00:48:58;9.95;;;6.32;;
77174;SDS011;66153;53.488;10.244;2023-03-01T00:51:30;11.50;;;6.50;;
77174;SDS011;66153;53.488;10.244;2023-03-01T00:53:58;13.50;;;7.32;;
77174;SDS011;66153;53.488;10.244;2023-03-01T00:56:25;11.32;;;5.70;;
77174;SDS011;66153;53.488;10.244;2023-03-01T00:58:51;11.63;;;6.30;;
77174;SDS011;66153;53.488;10.244;2023-03-01T01:01:18;11.02;;;6.47;;
77174;SDS011;66153;53.488;10.244;2023-03-01T01:06:24;10.05;;;6.57;;
77174;SDS011;66153;53.488;10.244;2023-03-01T01:08:51;11.63;;;6.57;;
77174;SDS011;66153;53.488;10.244;2023-03-01T01:11:17;11.57;;;6.80;;
77174;SDS011;66153;53.488;10.244;2023-03-01T01:13:50;11.60;;;6.60;;
77174;SDS011;66153;53.488;10.244;2023-03-01T01:16:18;10.55;;;6.25;;
77174;SDS011;66153;53.488;10.244;2023-03-01T01:18:44;11.23;;;6.10;;
77174;SDS011;66153;53.488;10.244;2023-03-01T01:21:12;9.75;;;5.53;;
77174;SDS011;66153;53.488;10.244;2023-03-01T01:23:39;13.25;;;6.78;;
77174;SDS011;66153;53.488;10.244;2023-03-01T01:26:07;9.98;;;5.75;;
77174;SDS011;66153;53.488;10.244;2023-03-01T01:31:00;11.05;;;6.03;;
77174;SDS011;66153;53.488;10.244;2023-03-01T01:33:26;11.52;;;7.18;;
77174;SDS011;66153;53.488;10.244;2023-03-01T01:35:53;11.18;;;7.30;;
77174;SDS011;66153;53.488;10.244;2023-03-01T01:38:19;12.70;;;7.72;;
77174;SDS011;66153;53.488;10.244;2023-03-01T01:40:48;13.60;;;6.80;;
77174;SDS011;66153;53.488;10.244;2023-03-01T01:43:26;11.95;;;7.38;;
77174;SDS011;66153;53.488;10.244;2023-03-01T01:45:54;14.40;;;7.70;;
77174;SDS011;66153;53.488;10.244;2023-03-01T01:48:22;12.93;;;7.43;;
77174;SDS011;66153;53.488;10.244;2023-03-01T01:50:56;14.07;;;7.63;;
77174;SDS011;66153;53.488;10.244;2023-03-01T01:53:27;14.27;;;7.07;;
77174;SDS011;66153;53.488;10.244;2023-03-01T01:55:54;14.23;;;7.88;;
77174;SDS011;66153;53.488;10.244;2023-03-01T01:58:22;13.90;;;7.60;;
77174;SDS011;66153;53.488;10.244;2023-03-01T02:00:50;14.27;;;8.35;;
77174;SDS011;66153;53.488;10.244;2023-03-01T02:03:26;12.90;;;7.93;;
77174;SDS011;66153;53.488;10.244;2023-03-01T02:05:58;14.88;;;8.00;;
77174;SDS011;66153;53.488;10.244;2023-03-01T02:08:33;13.63;;;8.35;;
77174;SDS011;66153;53.488;10.244;2023-03-01T02:11:03;11.32;;;7.03;;
77174;SDS011;66153;53.488;10.244;2023-03-01T02:13:35;12.82;;;7.75;;
77174;SDS011;66153;53.488;10.244;2023-03-01T02:16:05;13.02;;;7.45;;
77174;SDS011;66153;53.488;10.244;2023-03-01T02:18:33;15.05;;;7.97;;
77174;SDS011;66153;53.488;10.244;2023-03-01T02:23:47;13.57;;;7.07;;
77174;SDS011;66153;53.488;10.244;2023-03-01T02:28:58;13.70;;;7.88;;
77174;SDS011;66153;53.488;10.244;2023-03-01T02:31:24;12.80;;;7.68;;
77174;SDS011;66153;53.488;10.244;2023-03-01T02:34:13;14.82;;;7.72;;
77174;SDS011;66153;53.488;10.244;2023-03-01T02:37:22;13.55;;;7.70;;
77174;SDS011;66153;53.488;10.244;2023-03-01T02:40:16;15.93;;;8.13;;
77174;SDS011;66153;53.488;10.244;2023-03-01T02:42:23;14.98;;;7.72;;
77174;SDS011;66153;53.488;10.244;2023-03-01T02:44:51;12.75;;;7.75;;
77174;SDS011;66153;53.488;10.244;2023-03-01T02:47:19;12.77;;;8.00;;
77174;SDS011;66153;53.488;10.244;2023-03-01T02:49:45;13.05;;;6.72;;
77174;SDS011;66153;53.488;10.244;2023-03-01T02:57:31;13.27;;;7.60;;
77174;SDS011;66153;53.488;10.244;2023-03-01T02:59:59;14.10;;;7.30;;
77174;SDS011;66153;53.488;10.244;2023-03-01T03:02:32;13.93;;;8.45;;
77174;SDS011;66153;53.488;10.244;2023-03-01T03:05:03;11.73;;;8.02;;
77174;SDS011;66153;53.488;10.244;2023-03-01T03:07:31;12.57;;;7.75;;
77174;SDS011;66153;53.488;10.244;2023-03-01T03:09:59;14.77;;;7.38;;
77174;SDS011;66153;53.488;10.244;2023-03-01T03:12:28;10.18;;;7.20;;
77174;SDS011;66153;53.488;10.244;2023-03-01T03:14:54;13.15;;;7.57;;
77174;SDS011;66153;53.488;10.244;2023-03-01T03:17:20;14.02;;;7.43;;
77174;SDS011;66153;53.488;10.244;2023-03-01T03:19:46;12.63;;;6.95;;
77174;SDS011;66153;53.488;10.244;2023-03-01T03:22:12;11.55;;;7.28;;
77174;SDS011;66153;53.488;10.244;2023-03-01T03:24:38;11.77;;;7.63;;
77174;SDS011;66153;53.488;10.244;2023-03-01T03:27:07;10.93;;;6.97;;
77174;SDS011;66153;53.488;10.244;2023-03-01T03:29:36;13.50;;;7.47;;
77174;SDS011;66153;53.488;10.244;2023-03-01T03:32:03;12.68;;;6.90;;
77174;SDS011;66153;53.488;10.244;2023-03-01T03:34:29;10.75;;;7.53;;
77174;SDS011;66153;53.488;10.244;2023-03-01T03:36:55;13.88;;;7.45;;
77174;SDS011;66153;53.488;10.244;2023-03-01T03:39:25;11.50;;;7.13;;
77174;SDS011;66153;53.488;10.244;2023-03-01T03:41:52;11.82;;;7.07;;
77174;SDS011;66153;53.488;10.244;2023-03-01T03:44:33;12.85;;;7.40;;
77174;SDS011;66153;53.488;10.244;2023-03-01T03:47:00;11.90;;;6.97;;
77174;SDS011;66153;53.488;10.244;2023-03-01T03:49:26;10.55;;;6.80;;
77174;SDS011;66153;53.488;10.244;2023-03-01T03:51:52;12.68;;;7.07;;
77174;SDS011;66153;53.488;10.244;2023-03-01T03:54:18;12.43;;;7.25;;
77174;SDS011;66153;53.488;10.244;2023-03-01T03:56:44;11.32;;;7.03;;
77174;SDS011;66153;53.488;10.244;2023-03-01T03:59:13;12.68;;;6.43;;
77174;SDS011;66153;53.488;10.244;2023-03-01T04:01:39;9.50;;;6.90;;
77174;SDS011;66153;53.488;10.244;2023-03-01T04:04:05;13.75;;;7.10;;
77174;SDS011;66153;53.488;10.244;2023-03-01T04:06:33;11.40;;;7.45;;
77174;SDS011;66153;53.488;10.244;2023-03-01T04:08:59;11.65;;;7.22;;
77174;SDS011;66153;53.488;10.244;2023-03-01T04:11:27;10.55;;;7.28;;
77174;SDS011;66153;53.488;10.244;2023-03-01T04:13:55;11.25;;;6.55;;
77174;SDS011;66153;53.488;10.244;2023-03-01T04:16:21;9.13;;;6.47;;
77174;SDS011;66153;53.488;10.244;2023-03-01T04:18:48;9.18;;;5.85;;
77174;SDS011;66153;53.488;10.244;2023-03-01T04:21:14;11.85;;;5.68;;
77174;SDS011;66153;53.488;10.244;2023-03-01T04:23:40;9.82;;;6.43;;
77174;SDS011;66153;53.488;10.244;2023-03-01T04:26:07;8.95;;;6.18;;
77174;SDS011;66153;53.488;10.244;2023-03-01T04:28:37;9.55;;;5.88;;
77174;SDS011;66153;53.488;10.244;2023-03-01T04:31:26;9.07;;;6.00;;
77174;SDS011;66153;53.488;10.244;2023-03-01T04:33:52;10.40;;;6.45;;
77174;SDS011;66153;53.488;10.244;2023-03-01T04:36:20;9.73;;;6.32;;
77174;SDS011;66153;53.488;10.244;2023-03-01T04:38:46;9.35;;;6.22;;
77174;SDS011;66153;53.488;10.244;2023-03-01T04:41:13;10.95;;;7.15;;
77174;SDS011;66153;53.488;10.244;2023-03-01T04:43:40;8.57;;;5.65;;
77174;SDS011;66153;53.488;10.244;2023-03-01T04:46:07;10.48;;;6.15;;
77174;SDS011;66153;53.488;10.244;2023-03-01T04:48:37;8.35;;;5.78;;
77174;SDS011;66153;53.488;10.244;2023-03-01T04:51:04;9.82;;;5.97;;
77174;SDS011;66153;53.488;10.244;2023-03-01T04:53:31;8.88;;;5.97;;
77174;SDS011;66153;53.488;10.244;2023-03-01T04:55:57;10.80;;;6.15;;
77174;SDS011;66153;53.488;10.244;2023-03-01T04:58:24;14.05;;;6.88;;
77174;SDS011;66153;53.488;10.244;2023-03-01T05:00:51;10.85;;;6.25;;
77174;SDS011;66153;53.488;10.244;2023-03-01T05:03:17;9.13;;;6.55;;
77174;SDS011;66153;53.488;10.244;2023-03-01T05:05:44;12.63;;;5.88;;
77174;SDS011;66153;53.488;10.244;2023-03-01T05:08:11;9.70;;;5.88;;
77174;SDS011;66153;53.488;10.244;2023-03-01T05:10:43;9.27;;;5.68;;
77174;SDS011;66153;53.488;10.244;2023-03-01T05:13:11;10.10;;;5.82;;
77174;SDS011;66153;53.488;10.244;2023-03-01T05:15:38;12.55;;;6.43;;
77174;SDS011;66153;53.488;10.244;2023-03-01T05:18:05;11.65;;;6.40;;
77174;SDS011;66153;53.488;10.244;2023-03-01T05:20:36;10.05;;;6.43;;
77174;SDS011;66153;53.488;10.244;2023-03-01T05:23:03;8.80;;;5.95;;
77174;SDS011;66153;53.488;10.244;2023-03-01T05:25:30;10.93;;;6.63;;
77174;SDS011;66153;53.488;10.244;2023-03-01T05:27:58;10.15;;;6.13;;
77174;SDS011;66153;53.488;10.244;2023-03-01T05:30:32;7.35;;;4.90;;
77174;SDS011;66153;53.488;10.244;2023-03-01T05:33:02;9.40;;;5.68;;
77174;SDS011;66153;53.488;10.244;2023-03-01T05:35:35;8.88;;;5.53;;
77174;SDS011;66153;53.488;10.244;2023-03-01T05:38:01;9.43;;;5.47;;
77174;SDS011;66153;53.488;10.244;2023-03-01T05:40:27;10.85;;;6.03;;
77174;SDS011;66153;53.488;10.244;2023-03-01T05:42:55;8.02;;;6.15;;
77174;SDS011;66153;53.488;10.244;2023-03-01T05:45:22;8.70;;;6.07;;
77174;SDS011;66153;53.488;10.244;2023-03-01T05:47:48;9.63;;;6.20;;
77174;SDS011;66153;53.488;10.244;2023-03-01T05:50:22;8.63;;;5.25;;
77174;SDS011;66153;53.488;10.244;2023-03-01T05:52:49;9.02;;;5.50;;
77174;SDS011;66153;53.488;10.244;2023-03-01T05:55:22;10.13;;;5.95;;
77174;SDS011;66153;53.488;10.244;2023-03-01T05:57:48;8.02;;;5.10;;
77174;SDS011;66153;53.488;10.244;2023-03-01T06:00:20;6.82;;;5.03;;
77174;SDS011;66153;53.488;10.244;2023-03-01T06:02:49;9.18;;;5.00;;
77174;SDS011;66153;53.488;10.244;2023-03-01T06:05:16;9.85;;;5.30;;
77174;SDS011;66153;53.488;10.244;2023-03-01T06:07:43;7.55;;;5.40;;
77174;SDS011;66153;53.488;10.244;2023-03-01T06:10:09;9.77;;;5.55;;
77174;SDS011;66153;53.488;10.244;2023-03-01T06:12:40;8.45;;;5.55;;
77174;SDS011;66153;53.488;10.244;2023-03-01T06:15:06;7.68;;;5.32;;
77174;SDS011;66153;53.488;10.244;2023-03-01T06:17:35;9.27;;;6.20;;
77174;SDS011;66153;53.488;10.244;2023-03-01T06:24:57;11.77;;;6.35;;
77174;SDS011;66153;53.488;10.244;2023-03-01T06:27:26;12.20;;;7.57;;
77174;SDS011;66153;53.488;10.244;2023-03-01T06:29:55;9.98;;;6.53;;
77174;SDS011;66153;53.488;10.244;2023-03-01T06:32:24;10.75;;;6.60;;
77174;SDS011;66153;53.488;10.244;2023-03-01T06:34:50;12.02;;;6.82;;
77174;SDS011;66153;53.488;10.244;2023-03-01T06:37:17;10.75;;;6.50;;
77174;SDS011;66153;53.488;10.244;2023-03-01T06:39:43;11.45;;;6.55;;
77174;SDS011;66153;53.488;10.244;2023-03-01T06:42:09;9.80;;;6.50;;
77174;SDS011;66153;53.488;10.244;2023-03-01T06:44:36;11.68;;;6.72;;
77174;SDS011;66153;53.488;10.244;2023-03-01T06:47:03;11.98;;;6.43;;
77174;SDS011;66153;53.488;10.244;2023-03-01T06:49:29;10.35;;;6.40;;
77174;SDS011;66153;53.488;10.244;2023-03-01T06:51:58;9.85;;;5.78;;
77174;SDS011;66153;53.488;10.244;2023-03-01T06:54:27;9.95;;;6.72;;
77174;SDS011;66153;53.488;10.244;2023-03-01T06:56:56;14.40;;;7.53;;
77174;SDS011;66153;53.488;10.244;2023-03-01T06:59:23;11.35;;;6.55;;
77174;SDS011;66153;53.488;10.244;2023-03-01T07:01:52;10.63;;;6.97;;
77174;SDS011;66153;53.488;10.244;2023-03-01T07:04:18;11.27;;;6.45;;
77174;SDS011;66153;53.488;10.244;2023-03-01T07:06:48;10.93;;;6.10;;
77174;SDS011;66153;53.488;10.244;2023-03-01T07:09:21;13.25;;;6.35;;
77174;SDS011;66153;53.488;10.244;2023-03-01T07:11:48;10.10;;;6.53;;
77174;SDS011;66153;53.488;10.244;2023-03-01T07:14:15;12.43;;;6.85;;
77174;SDS011;66153;53.488;10.244;2023-03-01T07:16:45;13.23;;;6.60;;
77174;SDS011;66153;53.488;10.244;2023-03-01T07:19:17;9.35;;;6.20;;
77174;SDS011;66153;53.488;10.244;2023-03-01T07:21:46;12.05;;;6.50;;
77174;SDS011;66153;53.488;10.244;2023-03-01T07:24:12;11.32;;;6.50;;
77174;SDS011;66153;53.488;10.244;2023-03-01T07:26:38;10.85;;;6.22;;
77174;SDS011;66153;53.488;10.244;2023-03-01T07:29:04;10.30;;;6.57;;
77174;SDS011;66153;53.488;10.244;2023-03-01T07:31:30;12.55;;;6.90;;
77174;SDS011;66153;53.488;10.244;2023-03-01T07:33:57;10.10;;;6.43;;
77174;SDS011;66153;53.488;10.244;2023-03-01T07:36:23;14.00;;;6.53;;
77174;SDS011;66153;53.488;10.244;2023-03-01T07:38:49;10.32;;;6.57;;
77174;SDS011;66153;53.488;10.244;2023-03-01T07:41:15;12.10;;;6.40;;
77174;SDS011;66153;53.488;10.244;2023-03-01T07:43:41;14.05;;;7.53;;
77174;SDS011;66153;53.488;10.244;2023-03-01T07:46:07;10.48;;;6.15;;
77174;SDS011;66153;53.488;10.244;2023-03-01T07:48:33;12.98;;;6.75;;
77174;SDS011;66153;53.488;10.244;2023-03-01T07:51:00;11.70;;;6.90;;
77174;SDS011;66153;53.488;10.244;2023-03-01T07:53:26;15.68;;;8.40;;
77174;SDS011;66153;53.488;10.244;2023-03-01T07:56:04;10.50;;;6.45;;
77174;SDS011;66153;53.488;10.244;2023-03-01T07:58:30;9.55;;;6.30;;
77174;SDS011;66153;53.488;10.244;2023-03-01T08:00:56;10.50;;;6.95;;
77174;SDS011;66153;53.488;10.244;2023-03-01T08:03:22;10.25;;;6.50;;
77174;SDS011;66153;53.488;10.244;2023-03-01T08:05:48;10.98;;;6.85;;
77174;SDS011;66153;53.488;10.244;2023-03-01T08:08:13;10.63;;;7.22;;
77174;SDS011;66153;53.488;10.244;2023-03-01T08:10:39;11.00;;;6.82;;
77174;SDS011;66153;53.488;10.244;2023-03-01T08:13:05;10.50;;;6.80;;
77174;SDS011;66153;53.488;10.244;2023-03-01T08:15:31;11.75;;;7.00;;
77174;SDS011;66153;53.488;10.244;2023-03-01T08:17:57;10.10;;;6.60;;
77174;SDS011;66153;53.488;10.244;2023-03-01T08:20:23;10.90;;;6.70;;
77174;SDS011;66153;53.488;10.244;2023-03-01T08:22:49;12.07;;;7.05;;
77174;SDS011;66153;53.488;10.244;2023-03-01T08:25:15;12.50;;;7.60;;
77174;SDS011;66153;53.488;10.244;2023-03-01T08:27:41;10.65;;;6.40;;
77174;SDS011;66153;53.488;10.244;2023-03-01T08:30:07;11.93;;;7.05;;
77174;SDS011;66153;53.488;10.244;2023-03-01T08:32:39;12.98;;;7.60;;
77174;SDS011;66153;53.488;10.244;2023-03-01T08:35:05;11.50;;;7.10;;
77174;SDS011;66153;53.488;10.244;2023-03-01T08:37:31;11.45;;;7.38;;
77174;SDS011;66153;53.488;10.244;2023-03-01T08:39:58;12.32;;;6.68;;
77174;SDS011;66153;53.488;10.244;2023-03-01T08:42:24;10.35;;;7.03;;
77174;SDS011;66153;53.488;10.244;2023-03-01T08:44:50;10.95;;;6.80;;
77174;SDS011;66153;53.488;10.244;2023-03-01T08:47:16;10.93;;;7.20;;
77174;SDS011;66153;53.488;10.244;2023-03-01T08:49:42;13.90;;;7.85;;
77174;SDS011;66153;53.488;10.244;2023-03-01T08:52:08;10.43;;;7.28;;
77174;SDS011;66153;53.488;10.244;2023-03-01T08:54:34;12.02;;;7.75;;
77174;SDS011;66153;53.488;10.244;2023-03-01T08:57:01;10.25;;;7.25;;
77174;SDS011;66153;53.488;10.244;2023-03-01T08:59:27;14.27;;;8.30;;
77174;SDS011;66153;53.488;10.244;2023-03-01T09:01:54;13.13;;;7.70;;
77174;SDS011;66153;53.488;10.244;2023-03-01T09:04:20;13.45;;;7.20;;
77174;SDS011;66153;53.488;10.244;2023-03-01T09:06:47;9.82;;;7.10;;
77174;SDS011;66153;53.488;10.244;2023-03-01T09:09:14;10.45;;;7.13;;
77174;SDS011;66153;53.488;10.244;2023-03-01T09:11:41;12.75;;;7.25;;
77174;SDS011;66153;53.488;10.244;2023-03-01T09:14:08;9.77;;;7.38;;
77174;SDS011;66153;53.488;10.244;2023-03-01T09:16:34;13.00;;;8.25;;
77174;SDS011;66153;53.488;10.244;2023-03-01T09:19:03;16.67;;;8.35;;
77174;SDS011;66153;53.488;10.244;2023-03-01T09:21:29;12.82;;;8.38;;
77174;SDS011;66153;53.488;10.244;2023-03-01T09:23:55;13.25;;;7.20;;
77174;SDS011;66153;53.488;10.244;2023-03-01T09:26:22;14.45;;;8.18;;
77174;SDS011;66153;53.488;10.244;2023-03-01T09:28:49;12.07;;;7.50;;
77174;SDS011;66153;53.488;10.244;2023-03-01T09:31:16;14.63;;;8.05;;
77174;SDS011;66153;53.488;10.244;2023-03-01T09:36:11;11.60;;;8.43;;
77174;SDS011;66153;53.488;10.244;2023-03-01T09:38:37;13.32;;;9.45;;
77174;SDS011;66153;53.488;10.244;2023-03-01T09:41:08;16.70;;;9.20;;
77174;SDS011;66153;53.488;10.244;2023-03-01T09:46:08;13.85;;;9.40;;
77174;SDS011;66153;53.488;10.244;2023-03-01T09:49:17;12.27;;;8.02;;
77174;SDS011;66153;53.488;10.244;2023-03-01T09:51:31;12.57;;;8.52;;
77174;SDS011;66153;53.488;10.244;2023-03-01T09:53:57;11.68;;;8.82;;
77174;SDS011;66153;53.488;10.244;2023-03-01T09:59:06;12.02;;;8.45;;
77174;SDS011;66153;53.488;10.244;2023-03-01T10:01:48;12.70;;;8.23;;
77174;SDS011;66153;53.488;10.244;2023-03-01T10:09:38;14.07;;;9.55;;
77174;SDS011;66153;53.488;10.244;2023-03-01T10:12:12;12.82;;;9.20;;
77174;SDS011;66153;53.488;10.244;2023-03-01T10:14:43;12.60;;;9.70;;
77174;SDS011;66153;53.488;10.244;2023-03-01T10:17:30;13.90;;;9.80;;
77174;SDS011;66153;53.488;10.244;2023-03-01T10:22:40;12.32;;;9.07;;
77174;SDS011;66153;53.488;10.244;2023-03-01T10:25:08;11.93;;;8.02;;
77174;SDS011;66153;53.488;10.244;2023-03-01T10:27:41;11.38;;;8.65;;
77174;SDS011;66153;53.488;10.244;2023-03-01T10:30:44;12.98;;;8.85;;
77174;SDS011;66153;53.488;10.244;2023-03-01T10:33:06;11.85;;;8.02;;
77174;SDS011;66153;53.488;10.244;2023-03-01T10:35:34;17.25;;;8.60;;
77174;SDS011;66153;53.488;10.244;2023-03-01T10:38:05;9.73;;;8.50;;
77174;SDS011;66153;53.488;10.244;2023-03-01T10:40:32;9.75;;;7.60;;
77174;SDS011;66153;53.488;10.244;2023-03-01T10:42:59;8.65;;;7.20;;
77174;SDS011;66153;53.488;10.244;2023-03-01T10:53:35;10.10;;;6.90;;
77174;SDS011;66153;53.488;10.244;2023-03-01T10:56:05;8.45;;;6.63;;
77174;SDS011;66153;53.488;10.244;2023-03-01T10:58:32;9.10;;;7.40;;
77174;SDS011;66153;53.488;10.244;2023-03-01T11:03:26;10.98;;;7.20;;
77174;SDS011;66153;53.488;10.244;2023-03-01T11:13:38;7.53;;;6.22;;
77174;SDS011;66153;53.488;10.244;2023-03-01T11:16:13;7.22;;;5.80;;
77174;SDS011;66153;53.488;10.244;2023-03-01T11:18:39;8.82;;;6.68;;
77174;SDS011;66153;53.488;10.244;2023-03-01T11:21:05;7.18;;;6.07;;
77174;SDS011;66153;53.488;10.244;2023-03-01T11:23:33;10.85;;;6.82;;
77174;SDS011;66153;53.488;10.244;2023-03-01T11:26:01;8.50;;;6.82;;
77174;SDS011;66153;53.488;10.244;2023-03-01T11:28:28;8.90;;;7.28;;
77174;SDS011;66153;53.488;10.244;2023-03-01T11:33:44;10.60;;;8.15;;
77174;SDS011;66153;53.488;10.244;2023-03-01T11:38:39;8.02;;;6.70;;
77174;SDS011;66153;53.488;10.244;2023-03-01T11:41:06;9.50;;;7.07;;
77174;SDS011;66153;53.488;10.244;2023-03-01T11:51:38;9.52;;;6.90;;
77174;SDS011;66153;53.488;10.244;2023-03-01T11:54:09;8.88;;;6.80;;
77174;SDS011;66153;53.488;10.244;2023-03-01T11:56:47;8.48;;;7.25;;
77174;SDS011;66153;53.488;10.244;2023-03-01T12:06:56;11.07;;;9.40;;
77174;SDS011;66153;53.488;10.244;2023-03-01T12:32:47;7.97;;;6.55;;
77174;SDS011;66153;53.488;10.244;2023-03-01T12:35:36;7.95;;;6.72;;
77174;SDS011;66153;53.488;10.244;2023-03-01T12:38:14;10.32;;;6.82;;
77174;SDS011;66153;53.488;10.244;2023-03-01T12:51:08;8.40;;;7.30;;
77174;SDS011;66153;53.488;10.244;2023-03-01T12:53:39;8.50;;;7.35;;
77174;SDS011;66153;53.488;10.244;2023-03-01T12:56:05;10.88;;;8.25;;
77174;SDS011;66153;53.488;10.244;2023-03-01T13:01:04;10.05;;;7.50;;
77174;SDS011;66153;53.488;10.244;2023-03-01T13:06:21;9.75;;;8.48;;
77174;SDS011;66153;53.488;10.244;2023-03-01T13:11:22;8.77;;;7.22;;
77174;SDS011;66153;53.488;10.244;2023-03-01T13:13:49;8.27;;;6.95;;
77174;SDS011;66153;53.488;10.244;2023-03-01T13:19:12;6.95;;;5.97;;
77174;SDS011;66153;53.488;10.244;2023-03-01T13:21:40;7.70;;;5.90;;
77174;SDS011;66153;53.488;10.244;2023-03-01T13:24:23;6.38;;;5.50;;
77174;SDS011;66153;53.488;10.244;2023-03-01T13:32:24;6.72;;;5.50;;
77174;SDS011;66153;53.488;10.244;2023-03-01T13:34:56;7.35;;;5.82;;
77174;SDS011;66153;53.488;10.244;2023-03-01T13:37:24;6.53;;;5.13;;
77174;SDS011;66153;53.488;10.244;2023-03-01T13:39:51;7.38;;;5.50;;
77174;SDS011;66153;53.488;10.244;2023-03-01T13:44:43;7.38;;;5.43;;
77174;SDS011;66153;53.488;10.244;2023-03-01T13:52:03;7.68;;;5.30;;
77174;SDS011;66153;53.488;10.244;2023-03-01T13:54:31;6.75;;;4.93;;
77174;SDS011;66153;53.488;10.244;2023-03-01T13:56:58;8.02;;;5.50;;
77174;SDS011;66153;53.488;10.244;2023-03-01T13:59:24;6.60;;;5.18;;
77174;SDS011;66153;53.488;10.244;2023-03-01T14:01:52;6.25;;;5.03;;
77174;SDS011;66153;53.488;10.244;2023-03-01T14:06:44;6.25;;;4.68;;
77174;SDS011;66153;53.488;10.244;2023-03-01T14:19:19;8.40;;;5.80;;
77174;SDS011;66153;53.488;10.244;2023-03-01T14:21:49;7.18;;;5.55;;
77174;SDS011;66153;53.488;10.244;2023-03-01T14:24:27;7.88;;;5.18;;
77174;SDS011;66153;53.488;10.244;2023-03-01T14:26:53;6.60;;;4.78;;
77174;SDS011;66153;53.488;10.244;2023-03-01T14:29:27;7.25;;;4.90;;
77174;SDS011;66153;53.488;10.244;2023-03-01T14:31:53;6.53;;;4.75;;
77174;SDS011;66153;53.488;10.244;2023-03-01T14:34:21;5.93;;;4.80;;
77174;SDS011;66153;53.488;10.244;2023-03-01T14:36:47;7.72;;;5.05;;
77174;SDS011;66153;53.488;10.244;2023-03-01T14:39:22;7.90;;;5.32;;
77174;SDS011;66153;53.488;10.244;2023-03-01T14:41:49;6.57;;;4.57;;
77174;SDS011;66153;53.488;10.244;2023-03-01T14:44:21;6.75;;;4.15;;
77174;SDS011;66153;53.488;10.244;2023-03-01T14:46:51;6.35;;;4.60;;
77174;SDS011;66153;53.488;10.244;2023-03-01T14:49:24;7.65;;;4.90;;
77174;SDS011;66153;53.488;10.244;2023-03-01T14:54:24;6.88;;;5.38;;
77174;SDS011;66153;53.488;10.244;2023-03-01T14:56:51;13.25;;;8.13;;
77174;SDS011;66153;53.488;10.244;2023-03-01T14:59:19;12.73;;;8.35;;
77174;SDS011;66153;53.488;10.244;2023-03-01T15:01:47;11.27;;;7.07;;
77174;SDS011;66153;53.488;10.244;2023-03-01T15:04:13;12.18;;;7.78;;
77174;SDS011;66153;53.488;10.244;2023-03-01T15:06:40;8.70;;;6.05;;
77174;SDS011;66153;53.488;10.244;2023-03-01T15:09:06;8.70;;;5.47;;
77174;SDS011;66153;53.488;10.244;2023-03-01T15:11:33;8.85;;;5.60;;
77174;SDS011;66153;53.488;10.244;2023-03-01T15:14:00;7.05;;;5.05;;
77174;SDS011;66153;53.488;10.244;2023-03-01T15:16:28;5.68;;;4.30;;
77174;SDS011;66153;53.488;10.244;2023-03-01T15:21:25;6.47;;;4.60;;
77174;SDS011;66153;53.488;10.244;2023-03-01T15:23:57;5.53;;;4.28;;
77174;SDS011;66153;53.488;10.244;2023-03-01T15:26:24;5.93;;;4.45;;
77174;SDS011;66153;53.488;10.244;2023-03-01T15:28:52;6.32;;;4.10;;
77174;SDS011;66153;53.488;10.244;2023-03-01T15:33:44;6.55;;;4.45;;
77174;SDS011;66153;53.488;10.244;2023-03-01T15:38:56;4.55;;;3.08;;
77174;SDS011;66153;53.488;10.244;2023-03-01T15:41:27;4.95;;;3.53;;
77174;SDS011;66153;53.488;10.244;2023-03-01T15:43:56;4.28;;;3.20;;
77174;SDS011;66153;53.488;10.244;2023-03-01T15:46:24;4.38;;;3.10;;
77174;SDS011;66153;53.488;10.244;2023-03-01T15:48:56;3.15;;;2.85;;
77174;SDS011;66153;53.488;10.244;2023-03-01T16:15:35;5.90;;;4.25;;
77174;SDS011;66153;53.488;10.244;2023-03-01T16:18:02;6.28;;;4.70;;
77174;SDS011;66153;53.488;10.244;2023-03-01T16:20:30;6.57;;;3.95;;
77174;SDS011;66153;53.488;10.244;2023-03-01T16:23:03;6.80;;;4.60;;
77174;SDS011;66153;53.488;10.244;2023-03-01T16:27:56;5.30;;;3.60;;
77174;SDS011;66153;53.488;10.244;2023-03-01T16:30:23;6.35;;;3.65;;
77174;SDS011;66153;53.488;10.244;2023-03-01T16:32:49;6.80;;;4.30;;
77174;SDS011;66153;53.488;10.244;2023-03-01T16:35:16;5.15;;;3.70;;
77174;SDS011;66153;53.488;10.244;2023-03-01T16:37:42;5.25;;;3.72;;
77174;SDS011;66153;53.488;10.244;2023-03-01T16:40:27;5.97;;;3.72;;
77174;SDS011;66153;53.488;10.244;2023-03-01T16:42:54;7.30;;;4.30;;
77174;SDS011;66153;53.488;10.244;2023-03-01T16:45:24;7.88;;;4.05;;
77174;SDS011;66153;53.488;10.244;2023-03-01T16:47:50;5.45;;;3.85;;
77174;SDS011;66153;53.488;10.244;2023-03-01T16:50:16;7.88;;;4.93;;
77174;SDS011;66153;53.488;10.244;2023-03-01T16:52:42;5.88;;;3.42;;
77174;SDS011;66153;53.488;10.244;2023-03-01T16:55:08;4.78;;;3.25;;
77174;SDS011;66153;53.488;10.244;2023-03-01T16:57:34;6.65;;;3.50;;
77174;SDS011;66153;53.488;10.244;2023-03-01T17:00:00;4.72;;;2.90;;
77174;SDS011;66153;53.488;10.244;2023-03-01T17:02:29;4.85;;;2.80;;
77174;SDS011;66153;53.488;10.244;2023-03-01T17:04:55;3.75;;;2.78;;
77174;SDS011;66153;53.488;10.244;2023-03-01T17:07:21;4.40;;;3.00;;
77174;SDS011;66153;53.488;10.244;2023-03-01T17:09:47;4.95;;;3.10;;
77174;SDS011;66153;53.488;10.244;2023-03-01T17:12:14;5.30;;;3.40;;
77174;SDS011;66153;53.488;10.244;2023-03-01T17:14:40;5.55;;;3.40;;
77174;SDS011;66153;53.488;10.244;2023-03-01T17:17:10;6.25;;;3.28;;
77174;SDS011;66153;53.488;10.244;2023-03-01T17:19:36;5.68;;;3.60;;
77174;SDS011;66153;53.488;10.244;2023-03-01T17:22:08;5.78;;;3.50;;
77174;SDS011;66153;53.488;10.244;2023-03-01T17:24:36;5.65;;;3.50;;
77174;SDS011;66153;53.488;10.244;2023-03-01T17:27:02;6.05;;;3.72;;
77174;SDS011;66153;53.488;10.244;2023-03-01T17:29:28;7.25;;;4.00;;
77174;SDS011;66153;53.488;10.244;2023-03-01T17:31:54;6.45;;;4.05;;
77174;SDS011;66153;53.488;10.244;2023-03-01T17:34:21;7.40;;;3.55;;